Address 0x3f142fb98d8c34387de8ce3a7fd5a6d3432ccb02 4

 

Overview

Balance:
0.050644994501241209 BNB

BNB Value:
$18.24 (@ $360.21/BNB)

Token:
 
Txn Hash Method
Block
From
To
Value [Txn Fee]
0xdbc4a76f4361d4bac06e691db9acef719cdf9b2894b473a33789265a75cd6ea8Withdraw111323432021-09-22 9:12:1723 secs ago0x3f142fb98d8c34387de8ce3a7fd5a6d3432ccb02OUT 0x8aa5b2c67852ed5334c8a7f0b5eb0ef9751067930 BNB0.000416385
0x68c94c17623b42d652791013cc82f6c47242f5087b7bd1d5d4eae4053f8dc9edApprove109414662021-09-15 17:27:536 days 15 hrs ago0x3f142fb98d8c34387de8ce3a7fd5a6d3432ccb02OUT Dragon Ball Finance: DBALL Token0 BNB0.000072855
0xe78bef84ea216b719a02763c9aa65053ad7d56550db3adcdb2086010a5c1ce91Approve109414572021-09-15 17:27:266 days 15 hrs ago0x3f142fb98d8c34387de8ce3a7fd5a6d3432ccb02OUT Dragon Ball Finance: DBALL Token0 BNB0.000072855
0xd643a264d1100a961bcd0d97e882c940009e3461bccf6934f52061066f600c08Approve109414302021-09-15 17:26:056 days 15 hrs ago0x3f142fb98d8c34387de8ce3a7fd5a6d3432ccb02OUT 0x853f8abc4d88300dbc8479c01da998382dcfd5b60 BNB0.00007221
0xf9a35bfd3f947596951562b61cf8c90694635386e51a59510dcf7561c22f42efSwap Exact Token...109391472021-09-15 15:31:556 days 17 hrs ago0x3f142fb98d8c34387de8ce3a7fd5a6d3432ccb02OUT PancakeSwap: Router v20 BNB0.000544405
0xe3d31d10a96e5d65a528521444cf8a3a3fe6751bb5ba627ffc45b32a0ef0f262Approve109389062021-09-15 15:19:526 days 17 hrs ago0x3f142fb98d8c34387de8ce3a7fd5a6d3432ccb02OUT 0x853f8abc4d88300dbc8479c01da998382dcfd5b60 BNB0.00022134
0x0998e4a3efd7e77df350f302273ab99266c0b5e0e16078aa5343cbdce70a33d9Swap Exact Token...109388242021-09-15 15:15:466 days 17 hrs ago0x3f142fb98d8c34387de8ce3a7fd5a6d3432ccb02OUT PancakeSwap: Router v20 BNB0.000898535
0x4b8800ef4dcd79d032150822a53084696a3c466f0793cf2adff629c0a8f1482bSwap Exact Token...109388122021-09-15 15:15:106 days 17 hrs ago0x3f142fb98d8c34387de8ce3a7fd5a6d3432ccb02OUT PancakeSwap: Router v20 BNB0.00019517
0xcbf3de85ea45f8956c0ddccda98d72b0293a032d3646de8c3441c9ccc20804c4Approve109168442021-09-14 20:50:027 days 12 hrs ago0x3f142fb98d8c34387de8ce3a7fd5a6d3432ccb02OUT 0x12bb890508c125661e03b09ec06e404bc92890400 BNB0.00022113
0xd5fe9dbfd8811df38dfa3827ecc2b9224be4bd638c1a5c1a9484bddd010df0c0Stake109095542021-09-14 14:43:397 days 18 hrs ago0x3f142fb98d8c34387de8ce3a7fd5a6d3432ccb02OUT 0x95270be1d4912d07442bad300ac93f3b1d1db5110 BNB0.000459185
0xfee84e9c8332861998bccfdd2451ce82c2f22c72b87336f31386b1be7596298cApprove109095482021-09-14 14:43:217 days 18 hrs ago0x3f142fb98d8c34387de8ce3a7fd5a6d3432ccb02OUT 0x12bb890508c125661e03b09ec06e404bc92890400 BNB0.00022119
0x0dfa12b78a35adf3f4eb76764e5d40934b9af676a1e10b1e26941f9b276e04d5Stake109069512021-09-14 12:33:297 days 20 hrs ago0x3f142fb98d8c34387de8ce3a7fd5a6d3432ccb02OUT 0x95270be1d4912d07442bad300ac93f3b1d1db5110 BNB0.000384125
0x28c545e8fc297a4066fb73585060849578f6f5784d54caffcefdc9c559e60747Approve109069462021-09-14 12:33:147 days 20 hrs ago0x3f142fb98d8c34387de8ce3a7fd5a6d3432ccb02OUT 0x12bb890508c125661e03b09ec06e404bc92890400 BNB0.00022125
0x09d4310837263b2ef2f96cae2e4ba39c786b6fb9aaca84cfe04a1656cd469b4eStake109069272021-09-14 12:32:177 days 20 hrs ago0x3f142fb98d8c34387de8ce3a7fd5a6d3432ccb02OUT 0x95270be1d4912d07442bad300ac93f3b1d1db5110 BNB0.000459185
0x760bc4a2b0ba6c0861f984ee0e1673316afb11eb2257f618bef3486e40e9059dApprove109069222021-09-14 12:32:027 days 20 hrs ago0x3f142fb98d8c34387de8ce3a7fd5a6d3432ccb02OUT 0x12bb890508c125661e03b09ec06e404bc92890400 BNB0.00022125
0x7357c39988b8e971b4b83a57e64f84a05fe2e8e0b9f1b5a265a8b6adbf6bab2aStake109064532021-09-14 12:08:357 days 21 hrs ago0x3f142fb98d8c34387de8ce3a7fd5a6d3432ccb02OUT 0x95270be1d4912d07442bad300ac93f3b1d1db5110 BNB0.000459125
0x6383665650ac4e4be07498c4e8576617949558cd7b3837ad57f0cc1c8c7cda86Approve109064442021-09-14 12:08:067 days 21 hrs ago0x3f142fb98d8c34387de8ce3a7fd5a6d3432ccb02OUT 0x12bb890508c125661e03b09ec06e404bc92890400 BNB0.00022125
0x82d339c1e9158e4d045631c5269f272936b0b9fd9946136dc196b94b8fec0a82Buy108783092021-09-13 12:38:258 days 20 hrs ago0x3f142fb98d8c34387de8ce3a7fd5a6d3432ccb02OUT 0xfc9790a1d62f6b889e01d992cdcca8fb9be716050 BNB0.00105147
0x0fffa16c9a0140c50aeb40b25007d93064c250f0815402ef473f9a0aee3ae130Approve108782992021-09-13 12:37:558 days 20 hrs ago0x3f142fb98d8c34387de8ce3a7fd5a6d3432ccb02OUT 0x12bb890508c125661e03b09ec06e404bc92890400 BNB0.00022113
0x3b808f4500101f024ae2ba71b5cdbfa9d8f87f3c1ebcf5a0834116a063cc443bBuy108782452021-09-13 12:35:138 days 20 hrs ago0x3f142fb98d8c34387de8ce3a7fd5a6d3432ccb02OUT 0xfc9790a1d62f6b889e01d992cdcca8fb9be716050 BNB0.00105147
0xee9f0f6006ce614cc95cf117fc2beb2b2c57da2b7a1addf0b411470b2eb34e71Approve108782402021-09-13 12:34:588 days 20 hrs ago0x3f142fb98d8c34387de8ce3a7fd5a6d3432ccb02OUT 0x12bb890508c125661e03b09ec06e404bc92890400 BNB0.00022113
0x649b80d93d2a1969d853e25cd17426585a980ce44590364c89549034d3c5b294Buy107919232021-09-10 12:09:3511 days 21 hrs ago0x3f142fb98d8c34387de8ce3a7fd5a6d3432ccb02OUT 0xfc9790a1d62f6b889e01d992cdcca8fb9be716050 BNB0.00105147
0x733273a3eb7c0a3b01cdc5ce8c627af0cfa4f996440405fbca5ac7735a1d0ac9Approve107919172021-09-10 12:09:1711 days 21 hrs ago0x3f142fb98d8c34387de8ce3a7fd5a6d3432ccb02OUT 0x12bb890508c125661e03b09ec06e404bc92890400 BNB0.00022113
0x6feefd6648e5c488c167799242d6177b11f0cf6b4ab07b142729cc17783ba8fcBuy107918692021-09-10 12:06:5311 days 21 hrs ago0x3f142fb98d8c34387de8ce3a7fd5a6d3432ccb02OUT 0xfc9790a1d62f6b889e01d992cdcca8fb9be716050 BNB0.00105147
0xd4d21b2fa6271d60b7daf5150efdac633406af0ff0bfdb5e038c7a080a96e7a2Approve107918642021-09-10 12:06:3811 days 21 hrs ago0x3f142fb98d8c34387de8ce3a7fd5a6d3432ccb02OUT 0x12bb890508c125661e03b09ec06e404bc92890400 BNB0.00022113
[ Download CSV Export 
Latest 6 internal transactions
Parent Txn Hash Block From To Value
0x1a36fda74b541026c46afd9b8e7cec40f66b597d7870a6c9ebccb1dd7806a9d8102931762021-08-23 23:50:4129 days 9 hrs ago Binance: WBNB Token0x3f142fb98d8c34387de8ce3a7fd5a6d3432ccb020.006020668140484651 BNB
0x09fba4b8714a81528360593ffd94251ffd63daf356fceacce6ff5f85da776865101570632021-08-19 5:34:4034 days 3 hrs ago 0xf84e3809971798bd372aecdc03ae977759a619ab0x3f142fb98d8c34387de8ce3a7fd5a6d3432ccb020.000551738035214134 BNB
0x5995e059ad816d652201705e721b86e1695da64d334ae9c706634ebf8f99941296807442021-08-02 7:48:5551 days 1 hr ago Binance: WBNB Token0x3f142fb98d8c34387de8ce3a7fd5a6d3432ccb020.05240288997275568 BNB
0xa5dc2692169ffb871c079821f4e5a25cea6fbb0ecba62e7937de1fed0a32a67987039972021-06-28 23:43:1585 days 9 hrs ago 0xf84e3809971798bd372aecdc03ae977759a619ab0x3f142fb98d8c34387de8ce3a7fd5a6d3432ccb020.003527319214499968 BNB
0xe8e37d8f99468fdcde524ddc0f985baa35b2949e99376964ad5f807883f27ef670841532021-05-02 22:22:39142 days 10 hrs ago PancakeSwap: Router0x3f142fb98d8c34387de8ce3a7fd5a6d3432ccb020.02081335766683398 BNB
0x511d151d88560bbcf9985fb6c822e35e536402f8b7da3a030b9397a92bb144fd67991272021-04-22 22:57:24152 days 10 hrs ago PancakeSwap: Router0x3f142fb98d8c34387de8ce3a7fd5a6d3432ccb020.061425462471452796 BNB
[ Download CSV Export 
Loading

Contract Name:
0 BNB

Compiler Version
0

Optimization Enabled:
0 BNB

Other Settings:
-NA-
Block Transaction Gas Used Reward
Age Block Fee Address BC Fee Address Voting Power Jailed Incoming
Block Uncle Number Difficulty Gas Used Reward
Loading
Loading
Make sure to use the "Vote Down" button for any spammy posts, and the "Vote Up" for interesting conversations.